sensor_id;sensor_type;location;lat;lon;timestamp;temperature;humidity
19206;DHT22;59358;52.134;5.596;2022-12-05T00:01:21;4.00;99.90
19206;DHT22;59358;52.134;5.596;2022-12-05T00:03:50;4.00;99.90
19206;DHT22;59358;52.134;5.596;2022-12-05T00:06:18;4.00;99.90
19206;DHT22;59358;52.134;5.596;2022-12-05T00:08:45;4.10;99.90
19206;DHT22;59358;52.134;5.596;2022-12-05T00:11:13;4.10;99.90
19206;DHT22;59358;52.134;5.596;2022-12-05T00:13:40;4.10;99.90
19206;DHT22;59358;52.134;5.596;2022-12-05T00:16:08;4.10;99.90
19206;DHT22;59358;52.134;5.596;2022-12-05T00:18:37;4.00;99.90
19206;DHT22;59358;52.134;5.596;2022-12-05T00:21:05;4.10;99.90
19206;DHT22;59358;52.134;5.596;2022-12-05T00:23:32;4.00;99.90
19206;DHT22;59358;52.134;5.596;2022-12-05T00:26:01;4.10;99.90
19206;DHT22;59358;52.134;5.596;2022-12-05T00:28:27;4.00;99.90
19206;DHT22;59358;52.134;5.596;2022-12-05T00:30:54;4.00;99.90
19206;DHT22;59358;52.134;5.596;2022-12-05T00:33:21;4.00;99.90
19206;DHT22;59358;52.134;5.596;2022-12-05T00:35:49;4.00;99.90
19206;DHT22;59358;52.134;5.596;2022-12-05T00:38:16;4.20;99.90
19206;DHT22;59358;52.134;5.596;2022-12-05T00:40:43;4.20;99.90
19206;DHT22;59358;52.134;5.596;2022-12-05T00:43:10;4.10;99.90
19206;DHT22;59358;52.134;5.596;2022-12-05T00:45:36;4.10;99.90
19206;DHT22;59358;52.134;5.596;2022-12-05T00:48:04;4.10;99.90
19206;DHT22;59358;52.134;5.596;2022-12-05T00:50:31;4.10;99.90
19206;DHT22;59358;52.134;5.596;2022-12-05T00:52:59;4.10;99.90
19206;DHT22;59358;52.134;5.596;2022-12-05T00:55:25;4.10;99.90
19206;DHT22;59358;52.134;5.596;2022-12-05T00:57:52;4.10;99.90
19206;DHT22;59358;52.134;5.596;2022-12-05T01:00:19;4.10;99.90
19206;DHT22;59358;52.134;5.596;2022-12-05T01:02:46;4.20;99.90
19206;DHT22;59358;52.134;5.596;2022-12-05T01:05:13;4.20;99.90
19206;DHT22;59358;52.134;5.596;2022-12-05T01:07:40;4.30;99.90
19206;DHT22;59358;52.134;5.596;2022-12-05T01:10:08;4.30;99.90
19206;DHT22;59358;52.134;5.596;2022-12-05T01:12:35;4.20;99.90
19206;DHT22;59358;52.134;5.596;2022-12-05T01:15:02;4.20;99.90
19206;DHT22;59358;52.134;5.596;2022-12-05T01:17:29;4.20;99.90
19206;DHT22;59358;52.134;5.596;2022-12-05T01:19:56;4.20;99.90
19206;DHT22;59358;52.134;5.596;2022-12-05T01:22:23;4.30;99.90
19206;DHT22;59358;52.134;5.596;2022-12-05T01:24:50;4.30;99.90
19206;DHT22;59358;52.134;5.596;2022-12-05T01:27:18;4.30;99.90
19206;DHT22;59358;52.134;5.596;2022-12-05T01:29:45;4.30;99.90
19206;DHT22;59358;52.134;5.596;2022-12-05T01:32:12;4.30;99.90
19206;DHT22;59358;52.134;5.596;2022-12-05T01:34:39;4.30;99.90
19206;DHT22;59358;52.134;5.596;2022-12-05T01:37:06;4.30;99.90
19206;DHT22;59358;52.134;5.596;2022-12-05T01:39:33;4.30;99.90
19206;DHT22;59358;52.134;5.596;2022-12-05T01:41:59;4.40;99.90
19206;DHT22;59358;52.134;5.596;2022-12-05T01:45:00;4.30;99.90
19206;DHT22;59358;52.134;5.596;2022-12-05T01:47:28;4.30;99.90
19206;DHT22;59358;52.134;5.596;2022-12-05T01:49:57;4.30;99.90
19206;DHT22;59358;52.134;5.596;2022-12-05T01:52:26;4.30;99.90
19206;DHT22;59358;52.134;5.596;2022-12-05T01:54:56;4.20;99.90
19206;DHT22;59358;52.134;5.596;2022-12-05T01:57:25;4.30;99.90
19206;DHT22;59358;52.134;5.596;2022-12-05T01:59:56;4.20;99.90
19206;DHT22;59358;52.134;5.596;2022-12-05T02:02:25;4.30;99.90
19206;DHT22;59358;52.134;5.596;2022-12-05T02:04:59;4.20;99.90
19206;DHT22;59358;52.134;5.596;2022-12-05T02:07:27;4.30;99.90
19206;DHT22;59358;52.134;5.596;2022-12-05T02:09:54;4.30;99.90
19206;DHT22;59358;52.134;5.596;2022-12-05T02:12:21;4.30;99.90
19206;DHT22;59358;52.134;5.596;2022-12-05T02:17:52;4.40;99.90
19206;DHT22;59358;52.134;5.596;2022-12-05T02:20:35;4.40;99.90
19206;DHT22;59358;52.134;5.596;2022-12-05T02:23:27;4.40;99.90
19206;DHT22;59358;52.134;5.596;2022-12-05T02:26:22;4.40;99.90
19206;DHT22;59358;52.134;5.596;2022-12-05T02:29:15;4.40;99.90
19206;DHT22;59358;52.134;5.596;2022-12-05T02:31:51;4.40;99.90
19206;DHT22;59358;52.134;5.596;2022-12-05T02:34:24;4.40;99.90
19206;DHT22;59358;52.134;5.596;2022-12-05T02:36:55;4.40;99.90
19206;DHT22;59358;52.134;5.596;2022-12-05T02:39:27;4.50;99.90
19206;DHT22;59358;52.134;5.596;2022-12-05T02:42:01;4.40;99.90
19206;DHT22;59358;52.134;5.596;2022-12-05T02:44:32;4.40;99.90
19206;DHT22;59358;52.134;5.596;2022-12-05T02:47:03;4.40;99.90
19206;DHT22;59358;52.134;5.596;2022-12-05T02:49:34;4.30;99.90
19206;DHT22;59358;52.134;5.596;2022-12-05T02:52:07;4.50;99.90
19206;DHT22;59358;52.134;5.596;2022-12-05T02:54:36;4.50;99.90
19206;DHT22;59358;52.134;5.596;2022-12-05T02:57:04;4.50;99.90
19206;DHT22;59358;52.134;5.596;2022-12-05T02:59:31;4.50;99.90
19206;DHT22;59358;52.134;5.596;2022-12-05T03:01:59;4.50;99.90
19206;DHT22;59358;52.134;5.596;2022-12-05T03:04:28;4.50;99.90
19206;DHT22;59358;52.134;5.596;2022-12-05T03:06:58;4.50;99.90
19206;DHT22;59358;52.134;5.596;2022-12-05T03:09:29;4.50;99.90
19206;DHT22;59358;52.134;5.596;2022-12-05T03:12:04;4.50;99.90
19206;DHT22;59358;52.134;5.596;2022-12-05T03:14:35;4.50;99.90
19206;DHT22;59358;52.134;5.596;2022-12-05T03:17:05;4.50;99.90
19206;DHT22;59358;52.134;5.596;2022-12-05T03:19:42;4.50;99.90
19206;DHT22;59358;52.134;5.596;2022-12-05T03:22:15;4.60;99.90
19206;DHT22;59358;52.134;5.596;2022-12-05T03:24:44;4.60;99.90
19206;DHT22;59358;52.134;5.596;2022-12-05T03:27:20;4.60;99.90
19206;DHT22;59358;52.134;5.596;2022-12-05T03:29:52;4.70;99.90
19206;DHT22;59358;52.134;5.596;2022-12-05T03:32:24;4.70;99.90
19206;DHT22;59358;52.134;5.596;2022-12-05T03:35:01;4.80;99.90
19206;DHT22;59358;52.134;5.596;2022-12-05T03:37:34;4.70;99.90
19206;DHT22;59358;52.134;5.596;2022-12-05T03:40:06;4.70;99.90
19206;DHT22;59358;52.134;5.596;2022-12-05T03:42:36;4.70;99.90
19206;DHT22;59358;52.134;5.596;2022-12-05T03:45:08;4.70;99.90
19206;DHT22;59358;52.134;5.596;2022-12-05T03:47:43;4.70;99.90
19206;DHT22;59358;52.134;5.596;2022-12-05T03:50:18;4.70;99.90
19206;DHT22;59358;52.134;5.596;2022-12-05T03:52:49;4.80;99.90
19206;DHT22;59358;52.134;5.596;2022-12-05T03:55:18;4.80;99.90
19206;DHT22;59358;52.134;5.596;2022-12-05T03:57:51;4.80;99.90
19206;DHT22;59358;52.134;5.596;2022-12-05T04:00:22;4.80;99.90
19206;DHT22;59358;52.134;5.596;2022-12-05T04:02:54;4.80;99.90
19206;DHT22;59358;52.134;5.596;2022-12-05T04:05:26;4.80;99.90
19206;DHT22;59358;52.134;5.596;2022-12-05T04:07:55;4.80;99.90
19206;DHT22;59358;52.134;5.596;2022-12-05T04:10:26;4.80;99.90
19206;DHT22;59358;52.134;5.596;2022-12-05T04:12:57;4.80;99.90
19206;DHT22;59358;52.134;5.596;2022-12-05T04:15:44;4.80;99.90
19206;DHT22;59358;52.134;5.596;2022-12-05T04:18:31;4.90;99.90
19206;DHT22;59358;52.134;5.596;2022-12-05T04:21:02;4.90;99.90
19206;DHT22;59358;52.134;5.596;2022-12-05T04:23:47;4.90;99.90
19206;DHT22;59358;52.134;5.596;2022-12-05T04:26:35;4.90;99.90
19206;DHT22;59358;52.134;5.596;2022-12-05T04:29:07;4.80;99.90
19206;DHT22;59358;52.134;5.596;2022-12-05T04:31:41;4.80;99.90
19206;DHT22;59358;52.134;5.596;2022-12-05T04:34:12;4.80;99.90
19206;DHT22;59358;52.134;5.596;2022-12-05T04:36:45;4.80;99.90
19206;DHT22;59358;52.134;5.596;2022-12-05T04:39:15;4.90;99.90
19206;DHT22;59358;52.134;5.596;2022-12-05T04:41:47;4.80;99.90
19206;DHT22;59358;52.134;5.596;2022-12-05T04:44:19;4.80;99.90
19206;DHT22;59358;52.134;5.596;2022-12-05T04:46:47;4.80;99.90
19206;DHT22;59358;52.134;5.596;2022-12-05T04:49:19;4.80;99.90
19206;DHT22;59358;52.134;5.596;2022-12-05T04:51:50;4.80;99.90
19206;DHT22;59358;52.134;5.596;2022-12-05T04:54:21;4.90;99.90
19206;DHT22;59358;52.134;5.596;2022-12-05T04:56:51;4.90;99.90
19206;DHT22;59358;52.134;5.596;2022-12-05T04:59:20;4.90;99.90
19206;DHT22;59358;52.134;5.596;2022-12-05T05:01:50;4.90;99.90
19206;DHT22;59358;52.134;5.596;2022-12-05T05:04:21;4.90;99.90
19206;DHT22;59358;52.134;5.596;2022-12-05T05:06:52;5.00;99.90
19206;DHT22;59358;52.134;5.596;2022-12-05T05:09:19;5.00;99.90
19206;DHT22;59358;52.134;5.596;2022-12-05T05:11:46;5.00;99.90
19206;DHT22;59358;52.134;5.596;2022-12-05T05:14:13;5.00;99.90
19206;DHT22;59358;52.134;5.596;2022-12-05T05:16:41;5.00;99.90
19206;DHT22;59358;52.134;5.596;2022-12-05T05:19:10;5.10;99.90
19206;DHT22;59358;52.134;5.596;2022-12-05T05:21:38;5.10;99.90
19206;DHT22;59358;52.134;5.596;2022-12-05T05:24:07;5.00;99.90
19206;DHT22;59358;52.134;5.596;2022-12-05T05:26:36;5.00;99.90
19206;DHT22;59358;52.134;5.596;2022-12-05T05:29:03;5.00;99.90
19206;DHT22;59358;52.134;5.596;2022-12-05T05:31:30;5.00;99.90
19206;DHT22;59358;52.134;5.596;2022-12-05T05:33:58;5.00;99.90
19206;DHT22;59358;52.134;5.596;2022-12-05T05:36:26;5.10;99.90
19206;DHT22;59358;52.134;5.596;2022-12-05T05:38:54;5.10;99.90
19206;DHT22;59358;52.134;5.596;2022-12-05T05:41:24;5.10;99.90
19206;DHT22;59358;52.134;5.596;2022-12-05T05:43:51;5.20;99.90
19206;DHT22;59358;52.134;5.596;2022-12-05T05:46:20;5.10;99.90
19206;DHT22;59358;52.134;5.596;2022-12-05T05:48:48;5.10;99.90
19206;DHT22;59358;52.134;5.596;2022-12-05T05:51:16;5.10;99.90
19206;DHT22;59358;52.134;5.596;2022-12-05T05:53:43;5.10;99.90
19206;DHT22;59358;52.134;5.596;2022-12-05T05:56:14;5.10;99.90
19206;DHT22;59358;52.134;5.596;2022-12-05T05:58:43;5.10;99.90
19206;DHT22;59358;52.134;5.596;2022-12-05T06:01:11;5.10;99.90
19206;DHT22;59358;52.134;5.596;2022-12-05T06:03:39;5.10;99.90
19206;DHT22;59358;52.134;5.596;2022-12-05T06:06:09;5.10;99.90
19206;DHT22;59358;52.134;5.596;2022-12-05T06:08:37;5.20;99.90
19206;DHT22;59358;52.134;5.596;2022-12-05T06:11:04;5.20;99.90
19206;DHT22;59358;52.134;5.596;2022-12-05T06:13:31;5.20;99.90
19206;DHT22;59358;52.134;5.596;2022-12-05T06:16:00;5.20;99.90
19206;DHT22;59358;52.134;5.596;2022-12-05T06:18:27;5.20;99.90
19206;DHT22;59358;52.134;5.596;2022-12-05T06:20:55;5.20;99.90
19206;DHT22;59358;52.134;5.596;2022-12-05T06:23:22;5.20;99.90
19206;DHT22;59358;52.134;5.596;2022-12-05T06:25:50;5.20;99.90
19206;DHT22;59358;52.134;5.596;2022-12-05T06:28:19;5.30;99.90
19206;DHT22;59358;52.134;5.596;2022-12-05T06:30:46;5.20;99.90
19206;DHT22;59358;52.134;5.596;2022-12-05T06:33:14;5.20;99.90
19206;DHT22;59358;52.134;5.596;2022-12-05T06:35:41;5.30;99.90
19206;DHT22;59358;52.134;5.596;2022-12-05T06:38:09;5.30;99.90
19206;DHT22;59358;52.134;5.596;2022-12-05T06:40:38;5.30;99.90
19206;DHT22;59358;52.134;5.596;2022-12-05T06:43:05;5.40;99.90
19206;DHT22;59358;52.134;5.596;2022-12-05T06:45:32;5.40;99.90
19206;DHT22;59358;52.134;5.596;2022-12-05T06:47:59;5.30;99.90
19206;DHT22;59358;52.134;5.596;2022-12-05T06:50:27;5.30;99.90
19206;DHT22;59358;52.134;5.596;2022-12-05T06:52:54;5.30;99.90
19206;DHT22;59358;52.134;5.596;2022-12-05T06:55:21;5.30;99.90
19206;DHT22;59358;52.134;5.596;2022-12-05T06:57:48;5.40;99.90
19206;DHT22;59358;52.134;5.596;2022-12-05T07:00:16;5.40;99.90
19206;DHT22;59358;52.134;5.596;2022-12-05T07:03:00;5.40;99.90
19206;DHT22;59358;52.134;5.596;2022-12-05T07:05:28;5.40;99.90
19206;DHT22;59358;52.134;5.596;2022-12-05T07:07:55;5.40;99.90
19206;DHT22;59358;52.134;5.596;2022-12-05T07:10:21;5.40;99.90
19206;DHT22;59358;52.134;5.596;2022-12-05T07:12:48;5.40;99.90
19206;DHT22;59358;52.134;5.596;2022-12-05T07:15:15;5.50;99.90
19206;DHT22;59358;52.134;5.596;2022-12-05T07:17:42;5.50;99.90
19206;DHT22;59358;52.134;5.596;2022-12-05T07:20:09;5.50;99.90
19206;DHT22;59358;52.134;5.596;2022-12-05T07:22:38;5.60;99.90
19206;DHT22;59358;52.134;5.596;2022-12-05T07:25:05;5.60;99.90
19206;DHT22;59358;52.134;5.596;2022-12-05T07:27:32;5.60;99.90
19206;DHT22;59358;52.134;5.596;2022-12-05T07:29:59;5.60;99.90
19206;DHT22;59358;52.134;5.596;2022-12-05T07:32:29;5.60;99.90
19206;DHT22;59358;52.134;5.596;2022-12-05T07:34:56;5.50;99.90
19206;DHT22;59358;52.134;5.596;2022-12-05T07:37:23;5.60;99.90
19206;DHT22;59358;52.134;5.596;2022-12-05T07:39:52;5.60;99.90
19206;DHT22;59358;52.134;5.596;2022-12-05T07:42:19;5.60;99.90
19206;DHT22;59358;52.134;5.596;2022-12-05T07:44:46;5.60;99.90
19206;DHT22;59358;52.134;5.596;2022-12-05T07:47:13;5.70;99.90
19206;DHT22;59358;52.134;5.596;2022-12-05T07:49:40;5.70;99.90
19206;DHT22;59358;52.134;5.596;2022-12-05T07:52:07;5.70;99.90
19206;DHT22;59358;52.134;5.596;2022-12-05T07:54:34;5.70;99.90
19206;DHT22;59358;52.134;5.596;2022-12-05T07:57:03;5.70;99.90
19206;DHT22;59358;52.134;5.596;2022-12-05T07:59:29;5.70;99.90
19206;DHT22;59358;52.134;5.596;2022-12-05T08:01:56;5.70;99.90
19206;DHT22;59358;52.134;5.596;2022-12-05T08:04:23;5.70;99.90
19206;DHT22;59358;52.134;5.596;2022-12-05T08:06:50;5.70;99.90
19206;DHT22;59358;52.134;5.596;2022-12-05T08:09:19;5.70;99.90
19206;DHT22;59358;52.134;5.596;2022-12-05T08:11:47;5.80;99.90
19206;DHT22;59358;52.134;5.596;2022-12-05T08:14:15;5.80;99.90
19206;DHT22;59358;52.134;5.596;2022-12-05T08:16:42;5.80;99.90
19206;DHT22;59358;52.134;5.596;2022-12-05T08:19:10;5.80;99.90
19206;DHT22;59358;52.134;5.596;2022-12-05T08:21:38;5.90;99.90
19206;DHT22;59358;52.134;5.596;2022-12-05T08:24:07;5.90;99.90
19206;DHT22;59358;52.134;5.596;2022-12-05T08:26:35;5.90;99.90
19206;DHT22;59358;52.134;5.596;2022-12-05T08:29:04;5.90;99.90
19206;DHT22;59358;52.134;5.596;2022-12-05T08:31:35;5.90;99.90
19206;DHT22;59358;52.134;5.596;2022-12-05T08:34:02;5.90;99.90
19206;DHT22;59358;52.134;5.596;2022-12-05T08:36:30;5.90;99.90
19206;DHT22;59358;52.134;5.596;2022-12-05T08:38:58;5.90;99.90
19206;DHT22;59358;52.134;5.596;2022-12-05T08:41:26;5.80;99.90
19206;DHT22;59358;52.134;5.596;2022-12-05T08:43:55;5.90;99.90
19206;DHT22;59358;52.134;5.596;2022-12-05T08:46:21;5.90;99.90
19206;DHT22;59358;52.134;5.596;2022-12-05T08:48:50;6.00;99.90
19206;DHT22;59358;52.134;5.596;2022-12-05T08:51:17;6.00;99.90
19206;DHT22;59358;52.134;5.596;2022-12-05T08:53:44;6.00;99.90
19206;DHT22;59358;52.134;5.596;2022-12-05T08:56:11;6.00;99.90
19206;DHT22;59358;52.134;5.596;2022-12-05T08:58:38;6.10;99.90
19206;DHT22;59358;52.134;5.596;2022-12-05T09:01:07;6.10;99.90
19206;DHT22;59358;52.134;5.596;2022-12-05T09:03:34;6.10;99.90
19206;DHT22;59358;52.134;5.596;2022-12-05T09:06:11;6.10;99.90
19206;DHT22;59358;52.134;5.596;2022-12-05T09:08:39;6.10;99.90
19206;DHT22;59358;52.134;5.596;2022-12-05T09:11:07;6.10;99.90
19206;DHT22;59358;52.134;5.596;2022-12-05T09:13:35;6.10;99.90
19206;DHT22;59358;52.134;5.596;2022-12-05T09:16:06;6.10;99.90
19206;DHT22;59358;52.134;5.596;2022-12-05T09:18:33;6.20;99.90
19206;DHT22;59358;52.134;5.596;2022-12-05T09:21:04;6.20;99.90
19206;DHT22;59358;52.134;5.596;2022-12-05T09:23:33;6.20;99.90
19206;DHT22;59358;52.134;5.596;2022-12-05T09:26:00;6.20;99.90
19206;DHT22;59358;52.134;5.596;2022-12-05T09:28:30;6.20;99.90
19206;DHT22;59358;52.134;5.596;2022-12-05T09:30:59;6.30;99.90
19206;DHT22;59358;52.134;5.596;2022-12-05T09:33:27;6.20;99.90
19206;DHT22;59358;52.134;5.596;2022-12-05T09:35:54;6.20;99.90
19206;DHT22;59358;52.134;5.596;2022-12-05T09:38:21;6.20;99.90
19206;DHT22;59358;52.134;5.596;2022-12-05T09:40:55;6.30;99.90
19206;DHT22;59358;52.134;5.596;2022-12-05T09:43:25;6.20;99.90
19206;DHT22;59358;52.134;5.596;2022-12-05T09:46:01;6.20;99.90
19206;DHT22;59358;52.134;5.596;2022-12-05T09:48:30;6.20;99.90
19206;DHT22;59358;52.134;5.596;2022-12-05T09:51:00;6.20;99.90
19206;DHT22;59358;52.134;5.596;2022-12-05T09:53:29;6.20;99.90
19206;DHT22;59358;52.134;5.596;2022-12-05T09:56:03;6.20;99.90
19206;DHT22;59358;52.134;5.596;2022-12-05T09:58:41;6.20;99.90
19206;DHT22;59358;52.134;5.596;2022-12-05T10:01:31;6.20;99.90
19206;DHT22;59358;52.134;5.596;2022-12-05T10:07:08;6.20;99.90
19206;DHT22;59358;52.134;5.596;2022-12-05T10:09:51;6.30;99.90
19206;DHT22;59358;52.134;5.596;2022-12-05T10:12:45;6.30;99.90
19206;DHT22;59358;52.134;5.596;2022-12-05T10:15:16;6.40;99.90
19206;DHT22;59358;52.134;5.596;2022-12-05T10:17:48;6.40;99.90
19206;DHT22;59358;52.134;5.596;2022-12-05T10:20:19;6.40;99.90
19206;DHT22;59358;52.134;5.596;2022-12-05T10:22:51;6.40;99.90
19206;DHT22;59358;52.134;5.596;2022-12-05T10:25:20;6.50;99.90
19206;DHT22;59358;52.134;5.596;2022-12-05T10:27:51;6.40;99.90
19206;DHT22;59358;52.134;5.596;2022-12-05T10:30:20;6.50;99.90
19206;DHT22;59358;52.134;5.596;2022-12-05T10:32:52;6.50;99.90
19206;DHT22;59358;52.134;5.596;2022-12-05T10:35:20;6.50;99.90
19206;DHT22;59358;52.134;5.596;2022-12-05T10:37:49;6.50;99.90
19206;DHT22;59358;52.134;5.596;2022-12-05T10:40:17;6.50;99.90
19206;DHT22;59358;52.134;5.596;2022-12-05T10:42:45;6.50;99.90
19206;DHT22;59358;52.134;5.596;2022-12-05T10:45:17;6.50;99.90
19206;DHT22;59358;52.134;5.596;2022-12-05T10:47:45;6.50;99.90
19206;DHT22;59358;52.134;5.596;2022-12-05T10:50:21;6.50;99.90
19206;DHT22;59358;52.134;5.596;2022-12-05T10:52:49;6.50;99.90
19206;DHT22;59358;52.134;5.596;2022-12-05T10:55:17;6.60;99.90
19206;DHT22;59358;52.134;5.596;2022-12-05T10:57:49;6.50;99.90
19206;DHT22;59358;52.134;5.596;2022-12-05T11:00:22;6.50;99.90
19206;DHT22;59358;52.134;5.596;2022-12-05T11:02:49;6.60;99.90
19206;DHT22;59358;52.134;5.596;2022-12-05T11:05:27;6.60;99.90
19206;DHT22;59358;52.134;5.596;2022-12-05T11:07:57;6.60;99.90
19206;DHT22;59358;52.134;5.596;2022-12-05T11:10:26;6.70;99.90
19206;DHT22;59358;52.134;5.596;2022-12-05T11:12:57;6.60;99.90
19206;DHT22;59358;52.134;5.596;2022-12-05T11:15:27;6.70;99.90
19206;DHT22;59358;52.134;5.596;2022-12-05T11:17:56;6.70;99.90
19206;DHT22;59358;52.134;5.596;2022-12-05T11:20:38;6.70;99.90
19206;DHT22;59358;52.134;5.596;2022-12-05T11:23:26;6.70;99.90
19206;DHT22;59358;52.134;5.596;2022-12-05T11:25:54;6.70;99.90
19206;DHT22;59358;52.134;5.596;2022-12-05T11:28:31;6.80;99.90
19206;DHT22;59358;52.134;5.596;2022-12-05T11:31:01;6.80;99.90
19206;DHT22;59358;52.134;5.596;2022-12-05T11:33:30;6.80;99.90
19206;DHT22;59358;52.134;5.596;2022-12-05T11:36:01;6.80;99.90
19206;DHT22;59358;52.134;5.596;2022-12-05T11:38:29;6.80;99.90
19206;DHT22;59358;52.134;5.596;2022-12-05T11:41:14;6.80;99.90
19206;DHT22;59358;52.134;5.596;2022-12-05T11:44:08;6.70;99.90
19206;DHT22;59358;52.134;5.596;2022-12-05T11:46:48;6.80;99.90
19206;DHT22;59358;52.134;5.596;2022-12-05T11:49:35;6.70;99.90
19206;DHT22;59358;52.134;5.596;2022-12-05T11:52:16;6.60;99.90
19206;DHT22;59358;52.134;5.596;2022-12-05T11:54:54;6.70;99.90
19206;DHT22;59358;52.134;5.596;2022-12-05T11:57:36;6.60;99.90
19206;DHT22;59358;52.134;5.596;2022-12-05T12:00:18;6.50;99.90
19206;DHT22;59358;52.134;5.596;2022-12-05T12:05:49;6.50;99.90
19206;DHT22;59358;52.134;5.596;2022-12-05T12:08:23;6.50;99.90
19206;DHT22;59358;52.134;5.596;2022-12-05T12:11:01;6.50;99.90
19206;DHT22;59358;52.134;5.596;2022-12-05T12:13:41;6.70;99.90
19206;DHT22;59358;52.134;5.596;2022-12-05T12:16:16;6.60;99.90
19206;DHT22;59358;52.134;5.596;2022-12-05T12:19:02;6.60;99.90
19206;DHT22;59358;52.134;5.596;2022-12-05T12:21:46;6.70;99.90
19206;DHT22;59358;52.134;5.596;2022-12-05T12:24:24;6.70;99.90
19206;DHT22;59358;52.134;5.596;2022-12-05T12:27:01;6.70;99.90
19206;DHT22;59358;52.134;5.596;2022-12-05T12:29:41;6.70;99.90
19206;DHT22;59358;52.134;5.596;2022-12-05T12:32:20;6.70;99.90
19206;DHT22;59358;52.134;5.596;2022-12-05T12:38:16;6.70;99.90
19206;DHT22;59358;52.134;5.596;2022-12-05T12:40:47;6.70;99.90
19206;DHT22;59358;52.134;5.596;2022-12-05T12:43:30;6.60;99.90
19206;DHT22;59358;52.134;5.596;2022-12-05T12:46:14;6.60;99.90
19206;DHT22;59358;52.134;5.596;2022-12-05T12:48:52;6.60;99.90
19206;DHT22;59358;52.134;5.596;2022-12-05T12:51:24;6.50;99.90
19206;DHT22;59358;52.134;5.596;2022-12-05T12:54:09;6.50;99.90
19206;DHT22;59358;52.134;5.596;2022-12-05T12:56:46;6.40;99.90
19206;DHT22;59358;52.134;5.596;2022-12-05T12:59:31;6.40;99.90
19206;DHT22;59358;52.134;5.596;2022-12-05T13:02:11;6.50;99.90
19206;DHT22;59358;52.134;5.596;2022-12-05T13:04:47;6.60;99.90
19206;DHT22;59358;52.134;5.596;2022-12-05T13:07:19;6.60;99.90
19206;DHT22;59358;52.134;5.596;2022-12-05T13:09:53;6.60;99.90
19206;DHT22;59358;52.134;5.596;2022-12-05T13:12:25;6.50;99.90
19206;DHT22;59358;52.134;5.596;2022-12-05T13:14:57;6.50;99.90
19206;DHT22;59358;52.134;5.596;2022-12-05T13:17:25;6.50;99.90
19206;DHT22;59358;52.134;5.596;2022-12-05T13:19:53;6.50;99.90
19206;DHT22;59358;52.134;5.596;2022-12-05T13:22:24;6.60;99.90
19206;DHT22;59358;52.134;5.596;2022-12-05T13:24:54;6.50;99.90
19206;DHT22;59358;52.134;5.596;2022-12-05T13:27:23;6.40;99.90
19206;DHT22;59358;52.134;5.596;2022-12-05T13:29:54;6.30;99.90
19206;DHT22;59358;52.134;5.596;2022-12-05T13:32:26;6.30;99.90
19206;DHT22;59358;52.134;5.596;2022-12-05T13:34:55;6.30;99.90
19206;DHT22;59358;52.134;5.596;2022-12-05T13:37:25;6.20;99.90
19206;DHT22;59358;52.134;5.596;2022-12-05T13:40:24;6.20;99.90
19206;DHT22;59358;52.134;5.596;2022-12-05T13:43:10;6.20;99.90
19206;DHT22;59358;52.134;5.596;2022-12-05T13:45:38;6.20;99.90
19206;DHT22;59358;52.134;5.596;2022-12-05T13:48:18;6.10;99.90
19206;DHT22;59358;52.134;5.596;2022-12-05T13:50:51;6.10;99.90
19206;DHT22;59358;52.134;5.596;2022-12-05T13:53:26;6.10;99.90
19206;DHT22;59358;52.134;5.596;2022-12-05T13:55:56;6.10;99.90
19206;DHT22;59358;52.134;5.596;2022-12-05T13:58:45;6.20;99.90
19206;DHT22;59358;52.134;5.596;2022-12-05T14:01:41;6.30;99.90
19206;DHT22;59358;52.134;5.596;2022-12-05T14:04:23;6.30;99.90
19206;DHT22;59358;52.134;5.596;2022-12-05T14:07:08;6.30;99.90
19206;DHT22;59358;52.134;5.596;2022-12-05T14:09:50;6.30;99.90
19206;DHT22;59358;52.134;5.596;2022-12-05T14:12:43;6.30;99.90
19206;DHT22;59358;52.134;5.596;2022-12-05T14:15:25;6.30;99.90
19206;DHT22;59358;52.134;5.596;2022-12-05T14:17:56;6.30;99.90
19206;DHT22;59358;52.134;5.596;2022-12-05T14:20:39;6.30;99.90
19206;DHT22;59358;52.134;5.596;2022-12-05T14:23:25;6.30;99.90
19206;DHT22;59358;52.134;5.596;2022-12-05T14:26:10;6.20;99.90
19206;DHT22;59358;52.134;5.596;2022-12-05T14:29:02;6.30;99.90
19206;DHT22;59358;52.134;5.596;2022-12-05T14:31:43;6.20;99.90
19206;DHT22;59358;52.134;5.596;2022-12-05T14:34:20;6.30;99.90
19206;DHT22;59358;52.134;5.596;2022-12-05T14:36:58;6.30;99.90
19206;DHT22;59358;52.134;5.596;2022-12-05T14:39:40;6.30;99.90
19206;DHT22;59358;52.134;5.596;2022-12-05T14:42:23;6.20;99.90
19206;DHT22;59358;52.134;5.596;2022-12-05T14:44:54;6.10;99.90
19206;DHT22;59358;52.134;5.596;2022-12-05T14:47:23;6.10;99.90
19206;DHT22;59358;52.134;5.596;2022-12-05T14:49:54;6.10;99.90
19206;DHT22;59358;52.134;5.596;2022-12-05T14:52:24;6.10;99.90
19206;DHT22;59358;52.134;5.596;2022-12-05T14:54:53;6.10;99.90
19206;DHT22;59358;52.134;5.596;2022-12-05T14:57:25;6.10;99.90
19206;DHT22;59358;52.134;5.596;2022-12-05T14:59:54;6.10;99.90
19206;DHT22;59358;52.134;5.596;2022-12-05T15:02:26;6.10;99.90
19206;DHT22;59358;52.134;5.596;2022-12-05T15:04:57;6.10;99.90
19206;DHT22;59358;52.134;5.596;2022-12-05T15:07:30;6.10;99.90
19206;DHT22;59358;52.134;5.596;2022-12-05T15:10:00;6.20;99.90
19206;DHT22;59358;52.134;5.596;2022-12-05T15:12:32;6.10;99.90
19206;DHT22;59358;52.134;5.596;2022-12-05T15:15:12;6.20;99.90
19206;DHT22;59358;52.134;5.596;2022-12-05T15:17:45;6.20;99.90
19206;DHT22;59358;52.134;5.596;2022-12-05T15:20:20;6.20;99.90
19206;DHT22;59358;52.134;5.596;2022-12-05T15:22:50;6.10;99.90
19206;DHT22;59358;52.134;5.596;2022-12-05T15:25:25;6.20;99.90
19206;DHT22;59358;52.134;5.596;2022-12-05T15:28:00;6.20;99.90
19206;DHT22;59358;52.134;5.596;2022-12-05T15:30:28;6.20;99.90
19206;DHT22;59358;52.134;5.596;2022-12-05T15:32:56;6.20;99.90
19206;DHT22;59358;52.134;5.596;2022-12-05T15:35:26;6.20;99.90
19206;DHT22;59358;52.134;5.596;2022-12-05T15:37:57;6.20;99.90
19206;DHT22;59358;52.134;5.596;2022-12-05T15:40:32;6.10;99.90
19206;DHT22;59358;52.134;5.596;2022-12-05T15:43:30;6.10;99.90
19206;DHT22;59358;52.134;5.596;2022-12-05T15:46:07;6.20;99.90
19206;DHT22;59358;52.134;5.596;2022-12-05T15:48:34;6.20;99.90
19206;DHT22;59358;52.134;5.596;2022-12-05T15:51:01;6.30;99.90
19206;DHT22;59358;52.134;5.596;2022-12-05T15:53:32;6.20;99.90
19206;DHT22;59358;52.134;5.596;2022-12-05T15:56:04;6.10;99.90
19206;DHT22;59358;52.134;5.596;2022-12-05T15:58:37;6.20;99.90
19206;DHT22;59358;52.134;5.596;2022-12-05T16:01:10;6.20;99.90
19206;DHT22;59358;52.134;5.596;2022-12-05T16:03:40;6.20;99.90
19206;DHT22;59358;52.134;5.596;2022-12-05T16:06:14;6.20;99.90
19206;DHT22;59358;52.134;5.596;2022-12-05T16:08:43;6.30;99.90
19206;DHT22;59358;52.134;5.596;2022-12-05T16:11:12;6.20;99.90
19206;DHT22;59358;52.134;5.596;2022-12-05T16:13:43;6.10;99.90
19206;DHT22;59358;52.134;5.596;2022-12-05T16:16:15;6.10;99.90
19206;DHT22;59358;52.134;5.596;2022-12-05T16:18:48;6.10;99.90
19206;DHT22;59358;52.134;5.596;2022-12-05T16:21:33;6.10;99.90
19206;DHT22;59358;52.134;5.596;2022-12-05T16:24:04;6.10;99.90
19206;DHT22;59358;52.134;5.596;2022-12-05T16:26:36;6.10;99.90